^^
Datos históricos de la estación: Murcia-Puente Tocinos
Diario Informe para Mayo 13, 2021 Unidades:  Métrico    Ingés   Ambas
Diario Semanal Mensual Anual
  Máxima: Mínima: Promedio:
Temperatura: 27.2 °C 17.6 °C 22.5 °C
Punto de rocio: 10.9 °C 5.7 °C 8.1 °C
Humedad: 52% 30% 40%
Velocidad viento: 25.1km/h 2.2km/h 9.4km/h
Racha viento: 41.8km/h - -
Viento- - SSO
Presión: 1016.6 hPa 1009.9 hPa -
Precipitación: 0.0 mm    
 
 
Tabla de datos para Mayo 13, 2021
Hora Temperatura Punto de rocio Presión Viento Velocidad viento Racha viento Humedad Intensidad lluvia(por hora) Nubes
00:04 22.2 °C 5.9 °C 1015.7 hPa ONO 3.2 km/h 11.1 km/h 35% 0.0 mm
00:09 22.1 °C 5.9 °C 1015.7 hPa OSO 4 km/h 11.3 km/h 35% 0.0 mm
00:14 21.9 °C 5.7 °C 1015.7 hPa OSO 4.7 km/h 13 km/h 35% 0.0 mm
00:19 21.8 °C 5.7 °C 1015.7 hPa OSO 5.8 km/h 11.9 km/h 35% 0.0 mm
00:24 21.7 °C 5.9 °C 1015.7 hPa OSO 6.5 km/h 11.9 km/h 35.9% 0.0 mm
00:29 21.7 °C 5.9 °C 1015.7 hPa OSO 6.5 km/h 11.9 km/h 36% 0.0 mm
00:34 21.7 °C 5.9 °C 1015.7 hPa OSO 6.5 km/h 13 km/h 36% 0.0 mm
00:39 21.6 °C 5.9 °C 1015.7 hPa OSO 7.2 km/h 14.8 km/h 36% 0.0 mm
00:44 21.6 °C 5.9 °C 1015.7 hPa OSO 7.6 km/h 14.5 km/h 36% 0.0 mm
00:49 21.6 °C 5.9 °C 1015.7 hPa Oeste 7.2 km/h 13.7 km/h 36% 0.0 mm
00:54 21.6 °C 5.8 °C 1015.7 hPa OSO 6.9 km/h 19 km/h 36% 0.0 mm
00:59 21.6 °C 5.9 °C 1015.7 hPa OSO 8.2 km/h 19.3 km/h 36% 0.0 mm
01:04 21.6 °C 5.9 °C 1015.6 hPa OSO 8.7 km/h 16.7 km/h 36% 0.0 mm
01:09 21.6 °C 5.9 °C 1015.6 hPa Oeste 8.7 km/h 14.8 km/h 36% 0.0 mm
01:14 21.7 °C 5.9 °C 1015.7 hPa OSO 8.7 km/h 14.5 km/h 36% 0.0 mm
01:19 21.7 °C 5.9 °C 1015.7 hPa Oeste 8 km/h 12.9 km/h 36% 0.0 mm
01:24 21.7 °C 5.9 °C 1015.7 hPa Oeste 7.6 km/h 13.7 km/h 36% 0.0 mm
01:29 21.7 °C 5.9 °C 1015.7 hPa SO 7.6 km/h 19 km/h 36% 0.0 mm
01:34 21.7 °C 5.9 °C 1015.6 hPa OSO 7.6 km/h 19.3 km/h 36% 0.0 mm
01:39 21.7 °C 5.9 °C 1015.6 hPa Oeste 7.6 km/h 19.3 km/h 36% 0.0 mm
01:44 21.6 °C 5.9 °C 1015.6 hPa OSO 7.6 km/h 13 km/h 36% 0.0 mm
01:49 21.6 °C 5.8 °C 1015.6 hPa Oeste 6.8 km/h 13.7 km/h 36% 0.0 mm
01:54 21.5 °C 6.1 °C 1015.6 hPa Oeste 6.5 km/h 14.8 km/h 37% 0.0 mm
01:59 21.4 °C 6.1 °C 1015.6 hPa Oeste 7.1 km/h 13 km/h 37% 0.0 mm
02:04 21.3 °C 6 °C 1015.5 hPa Oeste 7.6 km/h 12.9 km/h 37% 0.0 mm
02:09 21.2 °C 6 °C 1015.5 hPa SO 5.9 km/h 8 km/h 37% 0.0 mm
02:14 21.2 °C 6 °C 1015.6 hPa SO 5 km/h 8 km/h 37.1% 0.0 mm
02:19 21.2 °C 6.1 °C 1015.6 hPa SO 4.8 km/h 9.3 km/h 37.3% 0.0 mm
02:24 21.1 °C 6.2 °C 1015.6 hPa OSO 4.7 km/h 9.7 km/h 38% 0.0 mm
02:29 21.1 °C 6.2 °C 1015.6 hPa OSO 4.8 km/h 9.7 km/h 38% 0.0 mm
02:34 21.1 °C 6.2 °C 1015.3 hPa OSO 5 km/h 15.6 km/h 38% 0.0 mm
02:39 21 °C 6.1 °C 1015.3 hPa OSO 6.1 km/h 16.1 km/h 38% 0.0 mm
02:44 20.9 °C 6 °C 1015.3 hPa OSO 6.9 km/h 11.1 km/h 38% 0.0 mm
02:49 20.8 °C 6.3 °C 1015.3 hPa SSO 6.3 km/h 11.3 km/h 38.8% 0.0 mm
02:54 20.7 °C 6.2 °C 1015.3 hPa SSO 5.8 km/h 9.3 km/h 39% 0.0 mm
02:59 20.6 °C 6.4 °C 1015.3 hPa SSO 5 km/h 9.7 km/h 39.7% 0.0 mm
03:04 20.4 °C 6.3 °C 1015.2 hPa Sur 4.6 km/h 8.4 km/h 40% 0.0 mm
03:09 20.3 °C 6.2 °C 1015.2 hPa Sur 4.9 km/h 11.1 km/h 40% 0.0 mm
03:14 20.2 °C 6.2 °C 1015.2 hPa SSO 5 km/h 14.8 km/h 40% 0.0 mm
03:19 20.1 °C 6.4 °C 1015.2 hPa SSO 7.3 km/h 14.5 km/h 40.9% 0.0 mm
03:24 20.1 °C 6.4 °C 1015.2 hPa SSO 8.7 km/h 13 km/h 41% 0.0 mm
03:29 20 °C 6.3 °C 1015.2 hPa Sur 7.6 km/h 12.9 km/h 41% 0.0 mm
03:34 20.1 °C 6.4 °C 1015.2 hPa Sur 6.9 km/h 13.7 km/h 41% 0.0 mm
03:39 20.1 °C 6.4 °C 1015.2 hPa SSO 8.1 km/h 14.5 km/h 41% 0.0 mm
03:44 20.1 °C 6.4 °C 1015.2 hPa SSO 8.7 km/h 13 km/h 41% 0.0 mm
03:49 20.1 °C 6.4 °C 1015.1 hPa SSO 8.7 km/h 13 km/h 41% 0.0 mm
03:54 20 °C 6.3 °C 1015.1 hPa SSO 8.7 km/h 12.9 km/h 41% 0.0 mm
03:59 20 °C 6.3 °C 1015.2 hPa SO 7.3 km/h 11.3 km/h 41% 0.0 mm
04:04 19.9 °C 6.3 °C 1015.2 hPa Sur 6.5 km/h 9.7 km/h 41.3% 0.0 mm
04:09 19.9 °C 6.6 °C 1015.2 hPa SE 6 km/h 9.7 km/h 42% 0.0 mm
04:14 19.8 °C 6.6 °C 1015.3 hPa Sur 5.8 km/h 9.3 km/h 42% 0.0 mm
04:19 19.8 °C 6.5 °C 1015.3 hPa SSE 5.3 km/h 9.7 km/h 42% 0.0 mm
04:24 19.7 °C 6.4 °C 1015.3 hPa Sur 5 km/h 8 km/h 42% 0.0 mm
04:29 19.7 °C 6.7 °C 1015.3 hPa SSO 5 km/h 8 km/h 42.9% 0.0 mm
04:34 19.6 °C 6.7 °C 1015.2 hPa SSO 5 km/h 9.3 km/h 43% 0.0 mm
04:39 19.6 °C 6.7 °C 1015.2 hPa SO 5.5 km/h 9.7 km/h 43% 0.0 mm
04:44 19.5 °C 6.6 °C 1015.2 hPa SO 5.8 km/h 10 km/h 43% 0.0 mm
04:49 19.4 °C 6.5 °C 1015.1 hPa SO 6.4 km/h 9.7 km/h 43% 0.0 mm
04:54 19.3 °C 6.7 °C 1015.1 hPa Oeste 6.9 km/h 9.7 km/h 43.9% 0.0 mm
04:59 19.2 °C 6.7 °C 1015.2 hPa OSO 4.8 km/h 8 km/h 44% 0.0 mm
05:04 19.1 °C 6.8 °C 1015.2 hPa NO 3.9 km/h 8.4 km/h 44.7% 0.0 mm
05:09 18.9 °C 6.9 °C 1015.2 hPa NE 3.4 km/h 8 km/h 45.5% 0.0 mm
05:14 18.7 °C 7 °C 1015.2 hPa ENE 3.2 km/h 8.4 km/h 46.3% 0.0 mm
05:19 18.4 °C 6.9 °C 1015.2 hPa ENE 3.6 km/h 8 km/h 47% 0.0 mm
05:24 18.3 °C 7 °C 1015.2 hPa NNO 3.9 km/h 8 km/h 47.7% 0.0 mm
05:29 18.3 °C 7.1 °C 1015.3 hPa SSE 3.4 km/h 7.4 km/h 48% 0.0 mm
05:34 18.2 °C 7.1 °C 1015.3 hPa SE 3.2 km/h 8 km/h 48.4% 0.0 mm
05:39 18.1 °C 7.2 °C 1015.3 hPa ESE 4.1 km/h 7.4 km/h 49% 0.0 mm
05:44 18.1 °C 7.2 °C 1015.3 hPa ESE 4.7 km/h 8 km/h 49% 0.0 mm
05:49 18.1 °C 7.2 °C 1015.2 hPa ESE 4.7 km/h 8 km/h 49% 0.0 mm
05:54 18 °C 7.1 °C 1015.2 hPa SE 4.7 km/h 8.7 km/h 49% 0.0 mm
05:59 18.1 °C 7.2 °C 1015.2 hPa Sur 4.1 km/h 9.7 km/h 49% 0.0 mm
06:04 18.1 °C 7.2 °C 1015.2 hPa Sur 3.9 km/h 8 km/h 49% 0.0 mm
06:09 18.2 °C 7.3 °C 1015.2 hPa SSO 3.9 km/h 8 km/h 49% 0.0 mm
06:14 18.3 °C 7.4 °C 1015.2 hPa SSO 3.9 km/h 5.8 km/h 49% 0.0 mm
06:19 18.3 °C 7.4 °C 1015.2 hPa SSO 3.2 km/h 6.4 km/h 49% 0.0 mm
06:24 18.3 °C 7.2 °C 1015.2 hPa Oeste 2.9 km/h 9.5 km/h 48.1% 0.0 mm
06:29 18.6 °C 7.1 °C 1015.2 hPa ONO 4.1 km/h 9.7 km/h 47.1% 0.0 mm
06:34 18.8 °C 7.2 °C 1015.1 hPa OSO 4.7 km/h 8 km/h 47% 0.0 mm
06:39 18.8 °C 7.3 °C 1015.1 hPa OSO 4.2 km/h 8 km/h 47% 0.0 mm
06:44 18.8 °C 7.2 °C 1015.3 hPa OSO 3.9 km/h 8 km/h 47% 0.0 mm
06:49 18.8 °C 7.2 °C 1015.3 hPa SSO 3.9 km/h 8 km/h 47% 0.0 mm
06:54 18.8 °C 7.2 °C 1015.3 hPa SSO 3.9 km/h 6.4 km/h 47% 0.0 mm
06:59 18.8 °C 7.2 °C 1015.3 hPa SSO 3.9 km/h 6.4 km/h 47% 0.0 mm
07:04 18.8 °C 7.4 °C 1015.3 hPa SSO 3.9 km/h 5.6 km/h 47.4% 0.0 mm
07:09 18.7 °C 7.6 °C 1015.3 hPa SO 2.8 km/h 5.8 km/h 48.4% 0.0 mm
07:14 18.5 °C 7.6 °C 1015.4 hPa NO 2.2 km/h 7.4 km/h 49% 0.0 mm
07:19 18.2 °C 7.6 °C 1015.4 hPa NO 3.7 km/h 9.5 km/h 49.7% 0.0 mm
07:24 17.9 °C 7.5 °C 1015.4 hPa ONO 4.7 km/h 10.3 km/h 50.4% 0.0 mm
07:29 17.7 °C 7.5 °C 1015.6 hPa Oeste 5.4 km/h 11.3 km/h 51% 0.0 mm
07:34 17.6 °C 7.5 °C 1015.6 hPa Oeste 5.8 km/h 11.3 km/h 51.3% 0.0 mm
07:39 17.7 °C 7.7 °C 1015.6 hPa OSO 4.2 km/h 8 km/h 52% 0.0 mm
07:44 17.7 °C 7.5 °C 1015.7 hPa SSO 3.2 km/h 8.4 km/h 51.1% 0.0 mm
07:49 17.7 °C 7.4 °C 1015.7 hPa SSE 4.2 km/h 11.1 km/h 51% 0.0 mm
07:54 17.8 °C 7.3 °C 1015.7 hPa Sur 4.7 km/h 13.7 km/h 50.2% 0.0 mm
07:59 17.9 °C 7.3 °C 1015.9 hPa Sur 6.6 km/h 14.5 km/h 50% 0.0 mm
08:04 18 °C 7.4 °C 1015.9 hPa SSE 7.6 km/h 12.9 km/h 50% 0.0 mm
08:09 18.2 °C 7.3 °C 1015.9 hPa SE 7.2 km/h 11.3 km/h 49% 0.0 mm
08:14 18.3 °C 7.4 °C 1015.9 hPa SE 6.9 km/h 9.7 km/h 49% 0.0 mm
08:19 18.5 °C 7.6 °C 1015.9 hPa NNE 5.8 km/h 8 km/h 49.2% 0.0 mm
08:24 18.7 °C 7.7 °C 1015.9 hPa ESE 5 km/h 10 km/h 48.7% 0.0 mm
08:29 18.8 °C 7.6 °C 1016.0 hPa Sur 4.8 km/h 9.7 km/h 48% 0.0 mm
08:34 18.9 °C 7.5 °C 1016.0 hPa SO 4.7 km/h 9.7 km/h 47.6% 0.0 mm
08:39 19 °C 7.5 °C 1016.0 hPa Oeste 4.9 km/h 13 km/h 47% 0.0 mm
08:44 19.3 °C 7.4 °C 1016.0 hPa Oeste 5 km/h 12.9 km/h 46.2% 0.0 mm
08:49 19.5 °C 7.6 °C 1016.0 hPa Oeste 5 km/h 11.3 km/h 46% 0.0 mm
08:54 19.7 °C 7.7 °C 1016.0 hPa ONO 5 km/h 7.6 km/h 45.7% 0.0 mm
08:59 20 °C 7.6 °C 1016.1 hPa OSO 4.2 km/h 10 km/h 44.5% 0.0 mm
09:04 20.2 °C 7.5 °C 1016.1 hPa Sur 3.9 km/h 9.7 km/h 44% 0.0 mm
09:09 20.6 °C 7.7 °C 1016.1 hPa NNE 3.4 km/h 9.5 km/h 43.6% 0.0 mm
09:14 20.7 °C 7.7 °C 1016.2 hPa ONO 3.2 km/h 10 km/h 43% 0.0 mm
09:19 20.8 °C 7.2 °C 1016.2 hPa ONO 5.1 km/h 22.5 km/h 41.6% 0.0 mm
09:24 20.6 °C 7.1 °C 1016.2 hPa ONO 6.5 km/h 24.1 km/h 41.7% 0.0 mm
09:29 20.6 °C 7.2 °C 1016.4 hPa ONO 11.1 km/h 24.1 km/h 42% 0.0 mm
09:34 20.7 °C 7.1 °C 1016.4 hPa ONO 13.7 km/h 25.9 km/h 41.5% 0.0 mm
09:39 20.6 °C 7.1 °C 1016.4 hPa ONO 14.4 km/h 33.5 km/h 41.5% 0.0 mm
09:44 20.7 °C 7.3 °C 1016.6 hPa ONO 14.8 km/h 33.8 km/h 42% 0.0 mm
09:49 20.7 °C 7.1 °C 1016.6 hPa ONO 16.2 km/h 27.8 km/h 41.3% 0.0 mm
09:54 20.7 °C 7.1 °C 1016.6 hPa ONO 17.2 km/h 29.6 km/h 41.3% 0.0 mm
09:59 20.8 °C 7.3 °C 1016.6 hPa ONO 15.6 km/h 29 km/h 41.7% 0.0 mm
10:04 20.9 °C 7.4 °C 1016.6 hPa Oeste 14.8 km/h 24.5 km/h 41.5% 0.0 mm
10:09 21 °C 7.3 °C 1016.6 hPa ONO 14.1 km/h 24.1 km/h 41.1% 0.0 mm
10:14 21.2 °C 7.3 °C 1016.6 hPa ONO 13.7 km/h 29.6 km/h 40.9% 0.0 mm
10:19 21.1 °C 7.2 °C 1016.6 hPa ONO 13.7 km/h 29 km/h 40.6% 0.0 mm
10:24 21.2 °C 7.1 °C 1016.6 hPa ONO 13.7 km/h 27.8 km/h 40.1% 0.0 mm
10:29 21.3 °C 7.3 °C 1016.6 hPa ONO 13.9 km/h 27.4 km/h 40.4% 0.0 mm
10:34 21.4 °C 7.3 °C 1016.5 hPa ONO 14 km/h 25.9 km/h 40.1% 0.0 mm
10:39 21.6 °C 7.4 °C 1016.5 hPa ONO 13.4 km/h 25.7 km/h 40% 0.0 mm
10:44 21.6 °C 7.4 °C 1016.5 hPa NO 13 km/h 20.9 km/h 40% 0.0 mm
10:49 21.7 °C 7.4 °C 1016.2 hPa ONO 13 km/h 20.9 km/h 40% 0.0 mm
10:54 21.8 °C 7.5 °C 1016.2 hPa SO 13 km/h 19.3 km/h 39.5% 0.0 mm
10:59 21.9 °C 7.3 °C 1016.2 hPa ONO 11.1 km/h 19.3 km/h 39% 0.0 mm
11:04 22 °C 7.4 °C 1015.9 hPa NO 10 km/h 19.3 km/h 39% 0.0 mm
11:09 22.2 °C 7.5 °C 1015.9 hPa NO 7.2 km/h 14.8 km/h 39% 0.0 mm
11:14 22.2 °C 7.4 °C 1015.9 hPa ONO 5.8 km/h 16.7 km/h 38.5% 0.0 mm
11:19 22.3 °C 7.6 °C 1015.9 hPa ONO 6.9 km/h 22.2 km/h 38.8% 0.0 mm
11:24 22.4 °C 7.5 °C 1015.9 hPa NO 7.6 km/h 22.5 km/h 38.2% 0.0 mm
11:29 22.5 °C 7.5 °C 1015.9 hPa NNE 8.7 km/h 16.1 km/h 38.2% 0.0 mm
11:34 22.7 °C 7.6 °C 1015.8 hPa ONO 9.5 km/h 11.3 km/h 38% 0.0 mm
11:39 22.8 °C 7.7 °C 1015.8 hPa SO 6.5 km/h 11.1 km/h 37.9% 0.0 mm
11:44 23 °C 7.7 °C 1015.8 hPa SSO 4.7 km/h 16.7 km/h 37.5% 0.0 mm
11:49 23.1 °C 7.7 °C 1015.6 hPa OSO 6.5 km/h 16.1 km/h 37% 0.0 mm
11:54 23.3 °C 7.7 °C 1015.6 hPa SSE 7.6 km/h 11.3 km/h 36.9% 0.0 mm
11:59 23.3 °C 7.6 °C 1015.6 hPa SE 6 km/h 10 km/h 36.5% 0.0 mm
12:04 23.4 °C 7.6 °C 1015.1 hPa SE 5 km/h 11.1 km/h 36.3% 0.0 mm
12:09 23.6 °C 7.7 °C 1015.1 hPa Sur 5.5 km/h 11.3 km/h 36.1% 0.0 mm
12:14 23.7 °C 7.8 °C 1015.1 hPa NO 5.8 km/h 14.8 km/h 36.1% 0.0 mm
12:19 23.9 °C 7.9 °C 1015.1 hPa SO 7 km/h 16.4 km/h 36% 0.0 mm
12:24 23.9 °C 7.8 °C 1015.1 hPa Oeste 7.6 km/h 16.7 km/h 35.7% 0.0 mm
12:29 23.8 °C 7.9 °C 1015.1 hPa OSO 8.2 km/h 16.1 km/h 36% 0.0 mm
12:34 24 °C 8 °C 1014.8 hPa SO 8.7 km/h 14.5 km/h 35.9% 0.0 mm
12:39 24.2 °C 7.8 °C 1014.8 hPa Oeste 7.2 km/h 14.8 km/h 35% 0.0 mm
12:44 24.4 °C 8 °C 1014.8 hPa SO 6.5 km/h 14.5 km/h 35% 0.0 mm
12:49 24.7 °C 8.1 °C 1014.7 hPa OSO 5.6 km/h 17.2 km/h 34.9% 0.0 mm
12:54 24.6 °C 8.1 °C 1014.7 hPa SO 5 km/h 17.7 km/h 35% 0.0 mm
12:59 24.7 °C 8 °C 1014.7 hPa Oeste 5.5 km/h 13.7 km/h 34.4% 0.0 mm
13:04 24.6 °C 7.8 °C 1014.5 hPa Oeste 5.8 km/h 14.5 km/h 34.3% 0.0 mm
13:09 24.5 °C 8 °C 1014.5 hPa NE 6.2 km/h 12.9 km/h 35% 0.0 mm
13:14 24.6 °C 8.1 °C 1014.5 hPa Este 6.5 km/h 11.1 km/h 35.1% 0.0 mm
13:19 24.8 °C 8.3 °C 1014.2 hPa NNE 6.1 km/h 11.3 km/h 34.9% 0.0 mm
13:24 25.2 °C 8.3 °C 1014.2 hPa NE 5.8 km/h 16.7 km/h 34.3% 0.0 mm
13:29 25.2 °C 8.2 °C 1014.2 hPa ENE 6.5 km/h 16.1 km/h 34% 0.0 mm
13:34 25.2 °C 8.2 °C 1014.1 hPa ESE 6.9 km/h 14.5 km/h 33.8% 0.0 mm
13:39 25.5 °C 7.7 °C 1014.1 hPa SSO 6.6 km/h 14.8 km/h 32.3% 0.0 mm
13:44 25.7 °C 7.8 °C 1014.1 hPa Sur 6.5 km/h 14.5 km/h 32% 0.0 mm
13:49 25.9 °C 7.5 °C 1013.8 hPa SO 6.5 km/h 13.7 km/h 31.2% 0.0 mm
13:54 26 °C 7.7 °C 1013.8 hPa SO 6.5 km/h 22.2 km/h 31.3% 0.0 mm
13:59 26 °C 7.6 °C 1013.8 hPa OSO 7.8 km/h 22.5 km/h 31.1% 0.0 mm
14:04 26.2 °C 7.9 °C 1013.6 hPa ONO 8.7 km/h 16.1 km/h 31.4% 0.0 mm
14:09 26.4 °C 7.8 °C 1013.6 hPa SSO 6.5 km/h 13 km/h 30.8% 0.0 mm
14:14 26.6 °C 7.7 °C 1013.6 hPa ESE 5 km/h 20.9 km/h 30.3% 0.0 mm
14:19 26.3 °C 7.7 °C 1013.2 hPa NE 7.6 km/h 20.9 km/h 30.6% 0.0 mm
14:24 26.2 °C 7.7 °C 1013.2 hPa SO 9.5 km/h 17.7 km/h 31% 0.0 mm
14:29 26.3 °C 7.8 °C 1013.2 hPa OSO 8.2 km/h 14.5 km/h 31% 0.0 mm
14:34 26.6 °C 7.9 °C 1013.0 hPa NO 7.6 km/h 13 km/h 30.7% 0.0 mm
14:39 26.8 °C 7.8 °C 1013.0 hPa Oeste 5.9 km/h 12.9 km/h 30.1% 0.0 mm
14:44 26.9 °C 7.9 °C 1013.0 hPa SSO 5 km/h 18.5 km/h 30% 0.0 mm
14:49 27.1 °C 8 °C 1012.7 hPa SSO 6.7 km/h 19.3 km/h 30% 0.0 mm
14:54 27.1 °C 8 °C 1012.7 hPa OSO 7.6 km/h 14.5 km/h 30% 0.0 mm
14:59 27.1 °C 8 °C 1012.7 hPa OSO 7.6 km/h 14.5 km/h 30% 0.0 mm
15:04 27 °C 8.1 °C 1012.5 hPa Sur 7.6 km/h 22.2 km/h 30.4% 0.0 mm
15:09 26.7 °C 8.3 °C 1012.5 hPa Sur 10.4 km/h 22.5 km/h 31.2% 0.0 mm
15:14 26.9 °C 8.5 °C 1012.5 hPa SSO 12.2 km/h 27.4 km/h 31.2% 0.0 mm
15:19 27.2 °C 8.7 °C 1012.4 hPa SSE 12.7 km/h 27.8 km/h 31.3% 0.0 mm
15:24 27 °C 8.7 °C 1012.4 hPa SSE 13 km/h 28.6 km/h 31.6% 0.0 mm
15:29 26.6 °C 8.6 °C 1012.4 hPa SSE 15.7 km/h 29.6 km/h 32% 0.0 mm
15:34 26.7 °C 8.6 °C 1012.2 hPa Sur 17.2 km/h 29 km/h 32% 0.0 mm
15:39 26.7 °C 8.8 °C 1012.2 hPa SSE 15.1 km/h 24.1 km/h 32.3% 0.0 mm
15:44 26.8 °C 8.7 °C 1012.2 hPa SE 14 km/h 29.6 km/h 32.1% 0.0 mm
15:49 26.7 °C 8.7 °C 1012.0 hPa SSE 13.4 km/h 29 km/h 32.1% 0.0 mm
15:54 26.9 °C 8.8 °C 1012.0 hPa SSE 13 km/h 22.2 km/h 32% 0.0 mm
15:59 26.8 °C 8.8 °C 1012.0 hPa SE 11.8 km/h 24.1 km/h 32% 0.0 mm
16:04 27 °C 9 °C 1011.8 hPa SSE 11.1 km/h 24.5 km/h 32.2% 0.0 mm
16:09 26.8 °C 9.3 °C 1011.8 hPa SE 14 km/h 34.3 km/h 33.2% 0.0 mm
16:14 26.6 °C 9.8 °C 1011.8 hPa SE 15.6 km/h 38.9 km/h 34.8% 0.0 mm
16:19 26.5 °C 9.8 °C 1011.5 hPa ESE 19.2 km/h 41.2 km/h 35% 0.0 mm
16:24 26.2 °C 9.9 °C 1011.5 hPa ESE 21.7 km/h 41.8 km/h 35.8% 0.0 mm
16:29 26 °C 9.8 °C 1011.5 hPa SE 23.3 km/h 40.7 km/h 36% 0.0 mm
16:34 25.9 °C 9.7 °C 1011.4 hPa SE 24.5 km/h 40.7 km/h 36% 0.0 mm
16:39 26.2 °C 9.9 °C 1011.4 hPa SE 24.9 km/h 40.2 km/h 35.9% 0.0 mm
16:44 26.3 °C 9.7 °C 1011.4 hPa SE 25.1 km/h 37 km/h 35.2% 0.0 mm
16:49 26.4 °C 9.6 °C 1011.2 hPa SE 22.9 km/h 35.2 km/h 34.7% 0.0 mm
16:54 26.3 °C 9.2 °C 1011.2 hPa SE 21.7 km/h 38.9 km/h 34.2% 0.0 mm
16:59 26.1 °C 9.4 °C 1011.2 hPa SSE 22.3 km/h 38.6 km/h 34.9% 0.0 mm
17:04 26.1 °C 9.4 °C 1011.0 hPa SE 22.5 km/h 35.4 km/h 35% 0.0 mm
17:09 26.2 °C 9.3 °C 1011.0 hPa SE 22.2 km/h 39.6 km/h 34.5% 0.0 mm
17:14 26 °C 9.3 °C 1011.0 hPa SE 22.1 km/h 40.2 km/h 34.8% 0.0 mm
17:19 26.1 °C 9.2 °C 1010.9 hPa SSE 21.3 km/h 35.4 km/h 34.4% 0.0 mm
17:24 26.1 °C 9 °C 1010.9 hPa SE 20.9 km/h 37.8 km/h 34.2% 0.0 mm
17:29 26.1 °C 9.2 °C 1010.9 hPa SE 21.5 km/h 37 km/h 34.5% 0.0 mm
17:34 25.8 °C 9.2 °C 1010.7 hPa SE 21.7 km/h 37 km/h 35% 0.0 mm
17:39 25.8 °C 9.2 °C 1010.7 hPa SE 22.9 km/h 40.7 km/h 35% 0.0 mm
17:44 25.6 °C 9.3 °C 1010.7 hPa SE 23.7 km/h 40.7 km/h 35.8% 0.0 mm
17:49 25.5 °C 9.7 °C 1010.6 hPa SE 24.5 km/h 40.2 km/h 36.9% 0.0 mm
17:54 25.6 °C 9.8 °C 1010.6 hPa SE 25.1 km/h 35.4 km/h 37% 0.0 mm
17:59 25.6 °C 10.1 °C 1010.8 hPa SSE 21.9 km/h 35.4 km/h 37.7% 0.0 mm
18:04 25.6 °C 10.2 °C 1010.8 hPa SE 20.1 km/h 35.4 km/h 38% 0.0 mm
18:09 25.6 °C 10.2 °C 1010.8 hPa SE 20.1 km/h 33.8 km/h 38% 0.0 mm
18:14 25.5 °C 10.2 °C 1010.8 hPa SE 20.1 km/h 35.9 km/h 38.1% 0.0 mm
18:19 25.3 °C 10 °C 1010.6 hPa SSE 21.1 km/h 35.4 km/h 38% 0.0 mm
18:24 25.2 °C 9.8 °C 1010.6 hPa SE 21.7 km/h 35.4 km/h 38% 0.0 mm
18:29 25.1 °C 9.9 °C 1010.6 hPa SE 21.9 km/h 34.3 km/h 38.3% 0.0 mm
18:34 25.1 °C 10.1 °C 1010.4 hPa SE 22.1 km/h 33.8 km/h 39% 0.0 mm
18:39 25.2 °C 10.2 °C 1010.4 hPa SE 19.8 km/h 33.8 km/h 39% 0.0 mm
18:44 25.2 °C 10.2 °C 1010.4 hPa SSE 18.4 km/h 34.3 km/h 39% 0.0 mm
18:49 25.1 °C 10.3 °C 1010.3 hPa SSE 18.8 km/h 33.8 km/h 39.4% 0.0 mm
18:54 25.2 °C 10.1 °C 1010.3 hPa SSE 19 km/h 33.5 km/h 38.6% 0.0 mm
18:59 24.9 °C 9.7 °C 1010.3 hPa SSE 18.6 km/h 33.8 km/h 38.4% 0.0 mm
19:04 24.9 °C 10.1 °C 1010.1 hPa SSE 18.4 km/h 33.3 km/h 39.3% 0.0 mm
19:09 24.8 °C 10.3 °C 1010.1 hPa SSE 19.4 km/h 33.8 km/h 40% 0.0 mm
19:14 24.7 °C 10.5 °C 1010.1 hPa SSE 20.1 km/h 32.2 km/h 40.7% 0.0 mm
19:19 24.8 °C 10.3 °C 1009.9 hPa SSE 20.1 km/h 35.2 km/h 40.1% 0.0 mm
19:24 24.8 °C 10.5 °C 1009.9 hPa SSE 20.1 km/h 35.4 km/h 40.7% 0.0 mm
19:29 24.8 °C 10.3 °C 1009.9 hPa SSE 19.4 km/h 29.8 km/h 40% 0.0 mm
19:34 24.7 °C 10.2 °C 1009.9 hPa SSE 19 km/h 30.6 km/h 40% 0.0 mm
19:39 24.8 °C 10.3 °C 1009.9 hPa SSE 19.7 km/h 29.8 km/h 40% 0.0 mm
19:44 24.8 °C 10.3 °C 1009.9 hPa SSE 20.1 km/h 30.6 km/h 40% 0.0 mm
19:49 24.8 °C 10.2 °C 1009.9 hPa SSE 19 km/h 29 km/h 39.9% 0.0 mm
19:54 24.7 °C 10.2 °C 1009.9 hPa SSE 18.4 km/h 25.9 km/h 40% 0.0 mm
19:59 24.9 °C 10 °C 1010.0 hPa SSE 16.2 km/h 25.7 km/h 39.1% 0.0 mm
20:04 24.8 °C 9.9 °C 1010.0 hPa SE 14.8 km/h 24.1 km/h 39% 0.0 mm
20:09 24.9 °C 10 °C 1010.0 hPa SSE 13.8 km/h 19.8 km/h 39% 0.0 mm
20:14 24.8 °C 9.9 °C 1010.1 hPa SSE 13 km/h 20.9 km/h 39% 0.0 mm
20:19 24.7 °C 9.8 °C 1010.1 hPa SSE 12.6 km/h 25.9 km/h 39% 0.0 mm
20:24 24.4 °C 9.6 °C 1010.1 hPa SSE 12.2 km/h 25.7 km/h 39% 0.0 mm
20:29 24.3 °C 9.4 °C 1010.2 hPa SSE 12.7 km/h 20.9 km/h 39.1% 0.0 mm
20:34 24.2 °C 9.6 °C 1010.2 hPa SSE 13 km/h 17.2 km/h 39.6% 0.0 mm
20:39 24.2 °C 9.8 °C 1010.2 hPa SE 11.1 km/h 17.7 km/h 40.2% 0.0 mm
20:44 24.1 °C 9.9 °C 1010.3 hPa ESE 10 km/h 11.1 km/h 40.7% 0.0 mm
20:49 23.8 °C 9.8 °C 1010.3 hPa ESE 7.5 km/h 11.3 km/h 41% 0.0 mm
20:54 23.7 °C 9.7 °C 1010.3 hPa ESE 5.8 km/h 9.7 km/h 41% 0.0 mm
20:59 23.7 °C 9.7 °C 1010.4 hPa Este 5.1 km/h 8 km/h 41% 0.0 mm
21:04 23.7 °C 9.6 °C 1010.4 hPa Este 4.6 km/h 8.4 km/h 41% 0.0 mm
21:09 23.6 °C 9.5 °C 1010.4 hPa Este 4.6 km/h 9.5 km/h 41% 0.0 mm
21:14 23.4 °C 9.4 °C 1010.4 hPa Este 4.6 km/h 9.7 km/h 41% 0.0 mm
21:19 23.4 °C 9.4 °C 1010.4 hPa Este 4.8 km/h 9.7 km/h 41% 0.0 mm
21:24 23.3 °C 9.3 °C 1010.4 hPa ENE 5 km/h 9.5 km/h 41% 0.0 mm
21:29 23.2 °C 9.2 °C 1010.4 hPa ENE 5.5 km/h 9.7 km/h 41% 0.0 mm
21:34 23.1 °C 9.1 °C 1010.4 hPa Este 5.8 km/h 9.7 km/h 41% 0.0 mm
21:39 23 °C 9.1 °C 1010.4 hPa Este 4.5 km/h 8 km/h 41% 0.0 mm
21:44 22.9 °C 9.2 °C 1010.5 hPa NE 3.9 km/h 10 km/h 41.7% 0.0 mm
21:49 22.8 °C 9.5 °C 1010.5 hPa NNO 3.9 km/h 9.7 km/h 42.8% 0.0 mm
21:54 22.7 °C 9.4 °C 1010.5 hPa NNE 3.9 km/h 9.7 km/h 43% 0.0 mm
21:59 22.6 °C 9.1 °C 1010.6 hPa NNE 4.6 km/h 9.3 km/h 42.2% 0.0 mm
22:04 22.6 °C 9 °C 1010.6 hPa NNE 5 km/h 9.7 km/h 42% 0.0 mm
22:09 22.6 °C 9.2 °C 1010.6 hPa NE 5 km/h 8 km/h 42.3% 0.0 mm
22:14 22.6 °C 9.4 °C 1010.6 hPa NE 5 km/h 8 km/h 43% 0.0 mm
22:19 22.7 °C 9.4 °C 1010.6 hPa NE 3.3 km/h 5 km/h 43% 0.0 mm
22:24 22.7 °C 9.5 °C 1010.6 hPa SE 2.2 km/h 11.1 km/h 43% 0.0 mm
22:29 22.7 °C 9.8 °C 1010.8 hPa SSO 3.8 km/h 11.3 km/h 43.8% 0.0 mm
22:34 22.8 °C 9.9 °C 1010.8 hPa SSO 4.7 km/h 13.7 km/h 44% 0.0 mm
22:39 22.7 °C 10 °C 1010.8 hPa SSO 5.7 km/h 14.5 km/h 44.6% 0.0 mm
22:44 22.6 °C 10.1 °C 1011.0 hPa SSO 6.5 km/h 20.4 km/h 45.1% 0.0 mm
22:49 22.4 °C 10.2 °C 1011.0 hPa SSO 8.7 km/h 20.9 km/h 46% 0.0 mm
22:54 22.3 °C 10.3 °C 1011.0 hPa SO 10 km/h 16.7 km/h 46.6% 0.0 mm
22:59 22.3 °C 10.4 °C 1011.1 hPa OSO 10 km/h 16.1 km/h 47% 0.0 mm
23:04 22.3 °C 10.4 °C 1011.1 hPa OSO 10 km/h 14.5 km/h 47% 0.0 mm
23:09 22.3 °C 10.4 °C 1011.1 hPa OSO 7.9 km/h 11.3 km/h 47% 0.0 mm
23:14 22.3 °C 10.4 °C 1011.3 hPa SO 6.5 km/h 11.9 km/h 47% 0.0 mm
23:19 22.3 °C 10.4 °C 1011.3 hPa SO 6 km/h 14.8 km/h 47% 0.0 mm
23:24 22.2 °C 10.5 °C 1011.3 hPa SO 5.8 km/h 14.5 km/h 47.3% 0.0 mm
23:29 22.2 °C 10.6 °C 1011.3 hPa Oeste 6.2 km/h 11.3 km/h 48% 0.0 mm
23:34 22.1 °C 10.6 °C 1011.3 hPa OSO 6.5 km/h 15.6 km/h 48.3% 0.0 mm
23:39 21.9 °C 10.7 °C 1011.3 hPa SO 7.7 km/h 22.5 km/h 49% 0.0 mm
23:44 21.8 °C 10.7 °C 1011.3 hPa SO 8.4 km/h 22.5 km/h 49.4% 0.0 mm
23:49 21.7 °C 10.9 °C 1011.3 hPa SSO 9.3 km/h 19.3 km/h 50% 0.0 mm
23:54 21.7 °C 10.8 °C 1011.3 hPa SO 10 km/h 20.4 km/h 50% 0.0 mm
23:59 21.7 °C 10.8 °C 1011.4 hPa SO 9.1 km/h 20.9 km/h 50% 0.0 mm
Murcia-Puente Tocinos, España
Compliments of Weather Underground - 2.75 mb

La estación de MeteoMurcia.com, publica sus datos en los siguientes proyectos:

Weather Underground PWS IMURCIAP2 Meteoclimatic www.awekas.at

W3Counter
Web Analytics